Time;durP1;ratioP1;P1;durP2;ratioP2;P2;SDS_P1;SDS_P2;PMS_P1;PMS_P2;Temp;Humidity;BMP_temperature;BMP_pressure;BME280_temperature;BME280_humidity;BME280_pressure;Samples;Min_cycle;Max_cycle;Signal;HPM_P1;HPM_P2
2021/11/26 00:01:36;;;;;;;60.08;26.92;;;1.20;18.60;;;;;;5074889;28;20203;-64
2021/11/26 00:04:07;;;;;;;64.25;29.83;;;1.20;16.50;;;;;;5074453;28;20499;-64
2021/11/26 00:06:35;;;;;;;59.67;26.95;;;1.10;17.10;;;;;;5077671;28;20155;-63
2021/11/26 00:09:07;;;;;;;59.22;27.77;;;1.10;16.60;;;;;;5076709;28;20036;-64
2021/11/26 00:11:35;;;;;;;59.13;26.83;;;1.00;17.10;;;;;;5079520;28;20072;-63
2021/11/26 00:14:09;;;;;;;60.70;26.67;;;1.00;16.80;;;;;;5076595;28;20047;-63
2021/11/26 00:16:40;;;;;;;61.38;29.23;;;1.10;17.00;;;;;;5073958;28;20562;-64
2021/11/26 00:19:10;;;;;;;61.70;27.35;;;1.10;16.60;;;;;;5077465;28;20063;-64
2021/11/26 00:21:42;;;;;;;58.13;27.52;;;1.00;17.10;;;;;;5066580;28;20052;-64
2021/11/26 00:24:13;;;;;;;60.38;28.45;;;1.00;17.30;;;;;;5067293;28;20071;-64
2021/11/26 00:26:47;;;;;;;57.97;27.92;;;1.00;17.00;;;;;;5083593;28;20062;-64
2021/11/26 00:29:16;;;;;;;62.45;27.63;;;1.00;17.00;;;;;;5084520;28;20707;-64
2021/11/26 00:31:49;;;;;;;60.90;28.30;;;1.10;16.60;;;;;;5079447;28;20056;-64
2021/11/26 00:34:18;;;;;;;55.80;28.13;;;1.10;16.10;;;;;;5084163;28;20048;-64
2021/11/26 00:36:48;;;;;;;64.68;27.70;;;1.00;16.50;;;;;;5077885;28;20048;-64
2021/11/26 00:39:20;;;;;;;64.20;28.10;;;1.00;17.00;;;;;;5081652;28;20051;-65
2021/11/26 00:41:50;;;;;;;60.65;27.83;;;1.00;16.50;;;;;;5081707;28;20136;-64
2021/11/26 00:44:19;;;;;;;58.05;26.52;;;1.00;16.80;;;;;;5078213;28;20051;-64
2021/11/26 00:46:47;;;;;;;54.80;27.52;;;1.00;16.30;;;;;;5081484;28;20105;-64
2021/11/26 00:49:17;;;;;;;54.92;26.92;;;1.10;16.40;;;;;;5085937;28;20646;-64
2021/11/26 00:51:45;;;;;;;56.28;27.17;;;1.10;16.60;;;;;;5079270;28;20127;-64
2021/11/26 00:54:16;;;;;;;57.50;26.88;;;1.10;16.50;;;;;;5072775;28;20075;-64
2021/11/26 00:56:47;;;;;;;58.58;26.48;;;1.00;16.40;;;;;;5084530;28;20056;-63
2021/11/26 00:59:16;;;;;;;56.50;26.00;;;0.90;17.00;;;;;;5083360;28;20032;-63
2021/11/26 01:01:44;;;;;;;56.63;29.20;;;1.00;17.00;;;;;;5083222;28;20059;-63
2021/11/26 01:04:14;;;;;;;62.45;29.02;;;1.10;17.10;;;;;;5079907;28;20075;-63
2021/11/26 01:06:44;;;;;;;57.78;27.65;;;1.10;16.10;;;;;;5078167;28;20033;-63
2021/11/26 01:09:12;;;;;;;56.88;26.80;;;1.10;16.00;;;;;;5086096;28;20066;-64
2021/11/26 01:11:39;;;;;;;63.40;27.35;;;1.10;15.70;;;;;;5081001;28;20036;-64
2021/11/26 01:14:08;;;;;;;57.85;27.15;;;1.00;16.10;;;;;;5080906;28;20127;-64
2021/11/26 01:16:39;;;;;;;57.55;26.80;;;1.10;16.50;;;;;;5081910;28;20052;-64
2021/11/26 01:19:07;;;;;;;52.95;26.50;;;1.10;16.50;;;;;;5084403;28;20044;-65
2021/11/26 01:21:35;;;;;;;58.70;27.85;;;1.10;15.50;;;;;;5082278;28;20061;-64
2021/11/26 01:24:08;;;;;;;54.78;27.10;;;1.10;15.70;;;;;;5071938;28;20407;-62
2021/11/26 01:26:41;;;;;;;57.00;26.85;;;1.00;15.80;;;;;;5078803;28;20123;-65
2021/11/26 01:29:13;;;;;;;59.47;27.73;;;1.00;16.60;;;;;;5084396;28;20035;-64
2021/11/26 01:31:45;;;;;;;59.90;26.75;;;1.10;15.70;;;;;;5080773;28;20051;-63
2021/11/26 01:34:15;;;;;;;61.50;26.45;;;1.20;15.80;;;;;;5082558;28;20109;-64
2021/11/26 01:36:46;;;;;;;57.08;25.80;;;1.20;14.30;;;;;;5086202;28;20066;-64
2021/11/26 01:39:20;;;;;;;56.95;26.98;;;1.10;14.10;;;;;;5087831;28;20038;-64
2021/11/26 01:41:51;;;;;;;60.08;27.90;;;1.10;15.00;;;;;;5086299;28;20051;-65
2021/11/26 01:44:20;;;;;;;62.35;27.38;;;1.10;15.10;;;;;;5086134;28;20537;-64
2021/11/26 01:46:51;;;;;;;63.20;27.05;;;1.10;14.30;;;;;;5086282;28;20119;-64
2021/11/26 01:49:21;;;;;;;60.97;28.95;;;1.10;15.30;;;;;;5084286;28;20119;-64
2021/11/26 01:51:49;;;;;;;57.65;27.25;;;1.10;14.60;;;;;;5084110;28;20123;-63
2021/11/26 01:54:16;;;;;;;61.17;27.25;;;1.00;15.20;;;;;;5085273;28;20127;-64
2021/11/26 01:56:51;;;;;;;58.08;27.70;;;0.90;15.90;;;;;;5083987;28;20105;-64
2021/11/26 01:59:19;;;;;;;59.10;27.65;;;1.00;15.40;;;;;;5088509;28;20136;-64
2021/11/26 02:01:48;;;;;;;53.95;26.17;;;0.90;15.80;;;;;;5080547;28;20043;-64
2021/11/26 02:04:19;;;;;;;60.00;27.63;;;1.00;15.90;;;;;;5082086;28;20044;-63
2021/11/26 02:06:50;;;;;;;56.15;27.73;;;1.10;16.40;;;;;;5088300;28;20036;-63
2021/11/26 02:09:19;;;;;;;61.80;27.98;;;1.20;16.00;;;;;;5084895;28;20036;-63
2021/11/26 02:11:48;;;;;;;57.50;27.92;;;1.20;15.20;;;;;;5083926;28;20103;-63
2021/11/26 02:14:20;;;;;;;59.38;27.67;;;1.10;15.50;;;;;;5087240;28;20075;-63
2021/11/26 02:16:51;;;;;;;58.50;28.65;;;1.00;16.10;;;;;;5082463;28;20040;-64
2021/11/26 02:19:25;;;;;;;60.00;26.88;;;1.10;17.00;;;;;;5085774;28;20055;-63
2021/11/26 02:21:55;;;;;;;59.90;26.13;;;1.10;17.00;;;;;;5083623;28;20043;-62
2021/11/26 02:24:26;;;;;;;59.40;28.73;;;1.00;17.00;;;;;;5083184;28;20050;-65
2021/11/26 02:26:55;;;;;;;61.60;28.23;;;1.00;17.10;;;;;;5086670;28;20052;-63
2021/11/26 02:29:27;;;;;;;62.67;28.70;;;1.00;17.10;;;;;;5084481;28;20495;-63
2021/11/26 02:31:55;;;;;;;57.10;28.50;;;1.00;17.70;;;;;;5079189;28;20047;-63
2021/11/26 02:34:23;;;;;;;55.17;28.30;;;1.00;18.10;;;;;;5082872;28;20487;-63
2021/11/26 02:36:51;;;;;;;62.30;27.95;;;1.00;18.40;;;;;;5083978;28;20039;-63
2021/11/26 02:39:24;;;;;;;57.10;28.27;;;0.90;18.90;;;;;;5084175;28;20530;-63
2021/11/26 02:41:52;;;;;;;65.30;28.45;;;0.90;18.80;;;;;;5081013;28;20051;-63
2021/11/26 02:44:20;;;;;;;61.92;29.55;;;1.00;18.90;;;;;;5081868;28;20551;-62
2021/11/26 02:46:48;;;;;;;62.80;27.55;;;1.00;18.40;;;;;;5083804;28;20162;-63
2021/11/26 02:49:20;;;;;;;68.00;28.50;;;1.00;18.30;;;;;;5083589;28;20940;-63
2021/11/26 02:51:48;;;;;;;67.28;28.60;;;1.10;18.10;;;;;;5080190;28;20082;-64
2021/11/26 02:54:17;;;;;;;70.22;30.67;;;1.00;18.60;;;;;;5082566;28;20188;-63
2021/11/26 02:56:46;;;;;;;57.60;26.33;;;1.00;19.10;;;;;;5083498;28;20082;-64
2021/11/26 02:59:14;;;;;;;61.92;27.70;;;1.10;18.80;;;;;;5084147;28;20035;-64
2021/11/26 03:01:44;;;;;;;62.20;30.23;;;1.10;18.50;;;;;;5085514;28;20039;-63
2021/11/26 03:04:16;;;;;;;57.38;26.85;;;1.00;18.60;;;;;;5078708;28;20055;-63
2021/11/26 03:06:45;;;;;;;66.97;30.48;;;1.00;18.60;;;;;;5084148;28;20043;-63
2021/11/26 03:09:13;;;;;;;56.55;27.33;;;1.00;18.20;;;;;;5085200;28;20040;-64
2021/11/26 03:11:45;;;;;;;62.85;29.15;;;1.10;18.30;;;;;;5079722;28;20036;-63
2021/11/26 03:14:13;;;;;;;66.05;29.20;;;0.90;18.70;;;;;;5080456;28;20113;-63
2021/11/26 03:16:41;;;;;;;67.22;30.02;;;1.00;19.00;;;;;;5085428;28;20175;-64
2021/11/26 03:19:12;;;;;;;57.80;27.70;;;1.10;18.80;;;;;;5082544;28;20093;-64
2021/11/26 03:21:40;;;;;;;63.05;27.85;;;1.00;18.80;;;;;;5082642;28;20127;-64
2021/11/26 03:24:10;;;;;;;57.65;27.83;;;1.10;19.40;;;;;;5082569;28;20248;-64
2021/11/26 03:26:39;;;;;;;62.83;30.20;;;1.00;17.70;;;;;;5083323;28;20518;-64
2021/11/26 03:29:10;;;;;;;61.45;26.88;;;1.10;18.90;;;;;;5084410;28;20516;-64
2021/11/26 03:31:39;;;;;;;62.22;28.08;;;1.00;19.80;;;;;;5081942;28;20063;-63
2021/11/26 03:34:09;;;;;;;63.80;28.25;;;0.90;21.10;;;;;;5080137;28;20075;-63
2021/11/26 03:36:37;;;;;;;66.57;32.15;;;1.00;22.50;;;;;;5084459;28;20044;-63
2021/11/26 03:39:05;;;;;;;59.83;29.98;;;1.00;21.30;;;;;;5084853;28;20135;-63
2021/11/26 03:41:34;;;;;;;68.07;30.25;;;1.00;22.20;;;;;;5079137;28;20109;-63
2021/11/26 03:44:03;;;;;;;66.82;30.45;;;1.00;22.30;;;;;;5081869;28;20059;-64
2021/11/26 03:46:41;;;;;;;61.72;29.45;;;1.10;21.70;;;;;;5083561;28;20047;-63
2021/11/26 03:49:09;;;;;;;61.20;29.33;;;1.20;21.00;;;;;;5085397;28;20102;-64
2021/11/26 03:51:38;;;;;;;65.30;30.50;;;1.20;20.60;;;;;;5054940;28;20095;-64
2021/11/26 03:54:09;;;;;;;68.13;29.20;;;1.20;20.50;;;;;;5071266;28;20411;-64
2021/11/26 03:56:42;;;;;;;68.57;31.02;;;1.30;20.70;;;;;;5085248;28;20177;-64
2021/11/26 03:59:14;;;;;;;68.05;29.38;;;1.30;20.00;;;;;;5081712;28;20058;-63
2021/11/26 04:01:43;;;;;;;63.35;28.98;;;1.20;18.50;;;;;;5083171;28;20523;-63
2021/11/26 04:04:12;;;;;;;61.13;29.05;;;1.10;19.50;;;;;;5080978;28;20049;-63
2021/11/26 04:06:41;;;;;;;66.28;28.67;;;1.10;20.50;;;;;;5083028;28;20043;-64
2021/11/26 04:09:09;;;;;;;57.20;27.55;;;1.10;20.60;;;;;;5086379;28;20131;-63
2021/11/26 04:11:42;;;;;;;61.80;28.73;;;1.20;20.50;;;;;;5079496;28;20355;-62
2021/11/26 04:14:15;;;;;;;70.18;28.88;;;1.30;20.30;;;;;;5076802;28;20051;-63
2021/11/26 04:16:46;;;;;;;68.07;29.95;;;1.30;20.20;;;;;;5085166;28;20048;-64
2021/11/26 04:19:14;;;;;;;70.57;31.00;;;1.30;20.70;;;;;;5082421;28;20080;-63
2021/11/26 04:21:46;;;;;;;68.95;31.67;;;1.30;21.00;;;;;;5078395;28;20044;-63
2021/11/26 04:24:15;;;;;;;63.38;29.48;;;1.30;21.30;;;;;;5079126;28;20495;-64
2021/11/26 04:26:44;;;;;;;63.42;29.60;;;1.30;21.80;;;;;;5083109;28;20044;-62
2021/11/26 04:29:20;;;;;;;61.65;29.55;;;1.40;21.00;;;;;;5085661;28;20495;-63
2021/11/26 04:31:51;;;;;;;59.58;28.02;;;1.30;20.70;;;;;;5080374;28;20059;-63
2021/11/26 04:34:21;;;;;;;57.47;28.05;;;1.30;20.50;;;;;;5078133;28;20867;-64
2021/11/26 04:36:54;;;;;;;67.93;29.65;;;1.30;19.70;;;;;;5084977;28;20700;-64
2021/11/26 04:39:28;;;;;;;63.17;28.67;;;1.30;19.50;;;;;;5086067;28;20054;-63
2021/11/26 04:42:02;;;;;;;68.90;29.50;;;1.30;19.40;;;;;;5079933;28;20036;-64
2021/11/26 04:44:29;;;;;;;64.03;27.98;;;1.40;20.00;;;;;;5082235;28;20068;-63
2021/11/26 04:46:59;;;;;;;65.28;29.95;;;1.30;19.50;;;;;;5083168;28;20130;-64
2021/11/26 04:49:28;;;;;;;67.63;30.83;;;1.30;20.00;;;;;;5084475;28;20063;-64
2021/11/26 04:51:57;;;;;;;61.35;28.38;;;1.30;20.30;;;;;;5053116;28;20036;-64
2021/11/26 04:54:28;;;;;;;66.10;30.77;;;1.30;20.40;;;;;;5077983;28;20059;-64
2021/11/26 04:56:57;;;;;;;65.47;30.23;;;1.30;20.70;;;;;;5083283;28;20439;-64
2021/11/26 04:59:25;;;;;;;75.50;31.52;;;1.30;20.30;;;;;;5084821;28;20048;-64
2021/11/26 05:01:53;;;;;;;69.10;30.85;;;1.40;20.10;;;;;;5076697;28;20032;-63
2021/11/26 05:04:27;;;;;;;67.25;29.38;;;1.40;19.40;;;;;;5081010;28;20377;-63
2021/11/26 05:07:01;;;;;;;67.90;33.13;;;1.30;19.20;;;;;;5084030;28;20028;-64
2021/11/26 05:09:31;;;;;;;67.65;31.13;;;1.30;19.70;;;;;;5083036;28;20063;-63
2021/11/26 05:12:01;;;;;;;66.25;30.80;;;1.40;19.70;;;;;;5081695;28;20407;-65
2021/11/26 05:14:31;;;;;;;65.60;30.75;;;1.10;18.20;;;;;;5084160;28;20077;-63
2021/11/26 05:17:01;;;;;;;69.88;29.58;;;1.10;20.10;;;;;;5084012;28;20139;-63
2021/11/26 05:19:32;;;;;;;65.22;30.10;;;1.10;20.90;;;;;;5086261;28;20052;-63
2021/11/26 05:22:04;;;;;;;65.32;28.85;;;1.20;20.60;;;;;;5082368;28;20055;-64
2021/11/26 05:24:36;;;;;;;56.00;28.10;;;1.30;20.80;;;;;;5079666;28;20055;-64
2021/11/26 05:27:05;;;;;;;62.88;28.58;;;1.30;20.50;;;;;;5082132;28;20048;-64
2021/11/26 05:29:36;;;;;;;65.13;29.05;;;1.20;20.00;;;;;;5084544;28;20048;-63
2021/11/26 05:32:06;;;;;;;67.00;30.10;;;1.30;19.80;;;;;;5079172;28;20047;-63
2021/11/26 05:34:35;;;;;;;65.82;30.00;;;1.30;20.10;;;;;;5083980;28;20040;-64
2021/11/26 05:37:03;;;;;;;60.28;27.65;;;1.20;19.80;;;;;;5081298;28;20145;-64
2021/11/26 05:39:31;;;;;;;60.38;27.95;;;1.30;18.80;;;;;;5079674;28;20123;-64
2021/11/26 05:41:59;;;;;;;65.68;28.33;;;1.30;19.10;;;;;;5076305;28;20137;-64
2021/11/26 05:44:27;;;;;;;62.58;28.02;;;1.20;19.20;;;;;;5058190;28;20196;-64
2021/11/26 05:46:56;;;;;;;66.88;29.35;;;1.30;19.40;;;;;;5061025;28;20052;-63
2021/11/26 05:49:23;;;;;;;59.72;28.23;;;1.40;19.00;;;;;;5063734;28;20064;-64
2021/11/26 05:51:58;;;;;;;66.13;29.63;;;1.30;18.60;;;;;;5059333;28;20052;-64
2021/11/26 05:54:27;;;;;;;64.97;28.33;;;1.20;19.30;;;;;;5062268;28;20492;-64
2021/11/26 05:56:58;;;;;;;62.53;28.77;;;1.30;19.60;;;;;;5061237;28;20052;-63
2021/11/26 05:59:30;;;;;;;62.53;28.65;;;1.40;18.50;;;;;;5080365;28;20044;-64
2021/11/26 06:02:00;;;;;;;64.45;27.67;;;1.50;18.60;;;;;;5078930;28;20567;-64
2021/11/26 06:04:30;;;;;;;60.22;28.27;;;1.40;17.60;;;;;;5081016;28;20048;-64
2021/11/26 06:07:00;;;;;;;53.53;27.75;;;1.50;17.50;;;;;;5084045;28;20554;-64
2021/11/26 06:09:29;;;;;;;57.80;26.60;;;1.50;17.40;;;;;;5082964;28;20039;-64
2021/11/26 06:12:00;;;;;;;64.25;27.13;;;1.50;17.30;;;;;;5079538;28;20040;-63
2021/11/26 06:14:28;;;;;;;60.78;26.15;;;1.50;17.40;;;;;;5082654;28;20086;-63
2021/11/26 06:16:57;;;;;;;57.08;26.38;;;1.40;17.30;;;;;;5082380;28;20127;-63
2021/11/26 06:19:27;;;;;;;54.40;26.08;;;1.50;17.90;;;;;;5083773;28;20093;-64
2021/11/26 06:21:57;;;;;;;56.90;26.10;;;1.60;16.80;;;;;;5085301;28;20123;-63
2021/11/26 06:24:26;;;;;;;55.67;25.85;;;1.60;16.00;;;;;;5084839;28;20086;-64
2021/11/26 06:27:00;;;;;;;59.25;25.48;;;1.60;15.50;;;;;;5080905;28;20431;-63
2021/11/26 06:29:28;;;;;;;54.85;25.20;;;1.70;15.10;;;;;;5087064;28;20097;-63
2021/11/26 06:31:56;;;;;;;55.28;26.50;;;1.70;14.60;;;;;;5080140;28;20044;-64
2021/11/26 06:34:23;;;;;;;57.25;26.17;;;1.70;14.70;;;;;;5081179;28;20345;-64
2021/11/26 06:36:52;;;;;;;64.00;28.63;;;1.80;15.80;;;;;;5085211;28;20274;-64
2021/11/26 06:39:23;;;;;;;65.30;28.55;;;1.70;15.50;;;;;;5083662;28;20491;-63
2021/11/26 06:41:52;;;;;;;60.85;27.52;;;1.80;15.90;;;;;;5085981;28;20046;-64
2021/11/26 06:44:20;;;;;;;59.28;26.63;;;1.90;15.90;;;;;;5086666;28;20062;-63
2021/11/26 06:46:51;;;;;;;56.83;28.00;;;1.80;15.60;;;;;;5083097;28;20139;-64
2021/11/26 06:49:19;;;;;;;63.45;29.25;;;1.80;15.80;;;;;;5087174;28;20134;-64
2021/11/26 06:51:48;;;;;;;62.42;27.50;;;1.80;16.60;;;;;;5085082;28;20044;-65
2021/11/26 06:54:20;;;;;;;58.83;26.98;;;1.80;16.60;;;;;;5079785;28;20049;-64
2021/11/26 06:56:48;;;;;;;56.55;27.13;;;1.80;16.00;;;;;;5085720;28;20621;-64
2021/11/26 06:59:17;;;;;;;60.40;27.70;;;1.90;16.30;;;;;;5086307;28;20055;-67
2021/11/26 07:01:49;;;;;;;66.40;28.70;;;1.80;16.10;;;;;;5082224;28;20047;-63
2021/11/26 07:04:22;;;;;;;64.38;30.05;;;1.90;16.20;;;;;;5084446;28;20059;-64
2021/11/26 07:06:52;;;;;;;60.90;29.13;;;1.90;16.10;;;;;;5086300;28;20036;-63
2021/11/26 07:09:22;;;;;;;56.08;27.10;;;1.90;15.80;;;;;;5083731;28;20093;-64
2021/11/26 07:11:54;;;;;;;58.80;26.88;;;1.80;14.80;;;;;;5083730;28;21191;-62
2021/11/26 07:14:42;;;;;;;54.55;25.10;;;1.90;15.10;;;;;;5082462;28;20040;-63
2021/11/26 07:17:14;;;;;;;59.67;26.25;;;1.90;15.00;;;;;;5082064;28;20044;-63
2021/11/26 07:19:46;;;;;;;51.50;25.25;;;1.80;14.10;;;;;;5087215;28;20056;-64
2021/11/26 07:22:14;;;;;;;49.40;23.48;;;1.80;14.80;;;;;;5077909;28;20053;-64
2021/11/26 07:24:48;;;;;;;57.17;26.02;;;1.80;14.50;;;;;;5079662;28;20574;-64
2021/11/26 07:27:16;;;;;;;55.67;26.75;;;1.90;14.10;;;;;;5086402;28;20040;-64
2021/11/26 07:29:45;;;;;;;57.33;26.38;;;1.90;14.10;;;;;;5084377;28;20048;-64
2021/11/26 07:32:19;;;;;;;56.53;26.58;;;1.90;14.90;;;;;;5080013;28;20408;-64
2021/11/26 07:34:52;;;;;;;58.42;25.33;;;2.00;14.70;;;;;;5085812;28;20067;-63
2021/11/26 07:37:25;;;;;;;59.47;26.90;;;1.90;14.20;;;;;;5081601;28;20035;-64
2021/11/26 07:39:56;;;;;;;54.08;26.25;;;1.90;14.90;;;;;;5084841;28;20044;-64
2021/11/26 07:42:30;;;;;;;56.92;26.67;;;1.90;14.10;;;;;;5084270;28;20055;-63
2021/11/26 07:44:59;;;;;;;55.25;26.15;;;2.00;14.60;;;;;;5080572;28;20043;-64
2021/11/26 07:47:30;;;;;;;56.58;25.17;;;2.00;14.80;;;;;;5083751;28;20125;-63
2021/11/26 07:50:04;;;;;;;52.00;25.65;;;2.00;14.20;;;;;;5087908;28;20040;-64
2021/11/26 07:52:33;;;;;;;52.58;24.80;;;2.00;14.20;;;;;;5079872;28;20036;-64
2021/11/26 07:55:01;;;;;;;50.90;24.40;;;2.00;13.80;;;;;;5082827;28;20051;-64
2021/11/26 07:57:29;;;;;;;53.08;24.08;;;2.00;14.20;;;;;;5084314;28;20042;-64
2021/11/26 07:59:59;;;;;;;48.28;23.52;;;2.00;14.20;;;;;;5084185;28;20041;-64
2021/11/26 08:02:29;;;;;;;49.83;24.17;;;2.10;12.90;;;;;;5068122;28;20562;-64
2021/11/26 08:04:57;;;;;;;53.40;23.35;;;2.00;13.00;;;;;;5081109;28;20415;-65
2021/11/26 08:07:25;;;;;;;49.60;24.60;;;2.10;13.40;;;;;;5083857;28;20120;-63
2021/11/26 08:09:57;;;;;;;52.50;23.08;;;2.20;13.10;;;;;;5083155;28;20478;-64
2021/11/26 08:12:29;;;;;;;52.15;25.92;;;2.30;13.10;;;;;;5081202;28;20196;-64
2021/11/26 08:15:01;;;;;;;52.72;23.67;;;2.30;13.10;;;;;;5081451;28;20043;-64
2021/11/26 08:17:29;;;;;;;47.95;24.58;;;2.30;12.70;;;;;;5084868;28;20080;-64
2021/11/26 08:20:03;;;;;;;51.28;23.50;;;2.30;13.20;;;;;;5083326;28;20040;-64
2021/11/26 08:22:51;;;;;;;45.47;22.48;;;2.30;12.80;;;;;;5078955;28;20044;-65
2021/11/26 08:25:27;;;;;;;46.67;24.13;;;2.30;12.90;;;;;;5085567;28;20036;-64
2021/11/26 08:27:58;;;;;;;48.10;24.40;;;2.30;12.90;;;;;;5081028;28;20036;-64
2021/11/26 08:30:29;;;;;;;47.67;23.23;;;2.30;13.10;;;;;;5083099;28;20043;-63
2021/11/26 08:32:57;;;;;;;47.58;21.38;;;2.30;13.20;;;;;;5078199;28;20094;-63
2021/11/26 08:35:25;;;;;;;50.17;22.55;;;2.30;13.10;;;;;;5080124;28;20116;-64
2021/11/26 08:38:10;;;;;;;45.42;20.75;;;2.40;12.90;;;;;;5084185;28;20047;-63
2021/11/26 08:40:38;;;;;;;46.30;22.92;;;2.40;12.60;;;;;;5086379;28;20544;-64
2021/11/26 08:43:07;;;;;;;45.83;22.50;;;2.50;12.80;;;;;;5077643;28;20511;-64
2021/11/26 08:45:40;;;;;;;50.00;22.42;;;2.40;13.20;;;;;;5083834;28;20040;-64
2021/11/26 08:48:12;;;;;;;46.85;22.70;;;2.40;12.20;;;;;;5084733;28;20570;-64
2021/11/26 08:50:42;;;;;;;48.10;22.45;;;2.40;13.10;;;;;;5082743;28;20032;-63
2021/11/26 08:53:14;;;;;;;47.85;22.23;;;2.50;13.10;;;;;;5080850;28;20440;-64
2021/11/26 08:55:47;;;;;;;45.58;21.70;;;2.50;12.30;;;;;;5078084;28;20135;-64
2021/11/26 08:58:15;;;;;;;53.53;22.85;;;2.50;12.30;;;;;;5080918;28;20090;-64
2021/11/26 09:00:45;;;;;;;43.70;21.30;;;2.50;12.00;;;;;;5082826;28;20059;-64
2021/11/26 09:03:15;;;;;;;52.58;23.63;;;2.60;12.50;;;;;;5077315;28;20123;-64
2021/11/26 09:05:48;;;;;;;;;;;2.60;12.20;;;;;;5082380;28;20112;-64
2021/11/26 09:08:16;;;;;;;48.15;22.58;;;2.70;12.30;;;;;;5083111;28;19920;-63
2021/11/26 09:10:46;;;;;;;52.10;24.02;;;2.70;11.90;;;;;;5080666;28;20048;-64
2021/11/26 09:13:16;;;;;;;46.60;23.38;;;2.60;11.60;;;;;;5081408;28;20495;-65
2021/11/26 09:15:46;;;;;;;55.05;24.85;;;2.70;12.10;;;;;;5082464;28;20690;-64
2021/11/26 09:18:19;;;;;;;61.40;25.60;;;2.70;13.30;;;;;;5081665;28;20051;-64
2021/11/26 09:20:52;;;;;;;53.20;24.83;;;2.70;13.70;;;;;;5082753;28;20051;-65
2021/11/26 09:23:26;;;;;;;58.20;26.17;;;2.70;14.50;;;;;;5077932;28;20058;-64
2021/11/26 09:25:56;;;;;;;55.42;25.95;;;2.70;14.70;;;;;;5080974;28;20040;-65
2021/11/26 09:28:28;;;;;;;49.90;23.50;;;2.70;14.70;;;;;;5084934;28;20093;-64
2021/11/26 09:30:59;;;;;;;54.28;24.70;;;2.70;13.80;;;;;;5082339;28;20573;-63
2021/11/26 09:33:35;;;;;;;52.70;24.38;;;2.90;14.50;;;;;;5077985;28;20496;-63
2021/11/26 09:36:11;;;;;;;52.03;23.15;;;2.90;13.60;;;;;;5080243;28;20043;-64
2021/11/26 09:38:42;;;;;;;49.35;23.63;;;2.90;13.30;;;;;;5082090;28;20048;-63
2021/11/26 09:41:15;;;;;;;52.22;24.30;;;2.80;12.90;;;;;;5081710;28;20326;-64
2021/11/26 09:44:01;;;;;;;49.50;24.00;;;3.00;12.80;;;;;;5075468;28;20495;-63
2021/11/26 09:46:34;;;;;;;48.63;23.48;;;2.90;12.10;;;;;;5084271;28;20492;-63
2021/11/26 09:49:17;;;;;;;49.10;24.77;;;3.00;12.00;;;;;;5079133;28;20048;-64
2021/11/26 09:51:46;;;;;;;52.22;23.08;;;3.00;12.40;;;;;;5083550;28;20127;-63
2021/11/26 09:54:14;;;;;;;47.40;22.33;;;2.90;12.50;;;;;;5084682;28;20055;-64
2021/11/26 09:56:42;;;;;;;42.83;21.52;;;2.90;12.90;;;;;;5081856;28;20131;-62
2021/11/26 09:59:14;;;;;;;45.22;22.65;;;3.10;12.90;;;;;;5085777;28;20132;-64
2021/11/26 10:01:44;;;;;;;43.60;21.70;;;2.90;12.50;;;;;;5085611;28;20111;-64
2021/11/26 10:04:20;;;;;;;43.45;22.27;;;3.00;12.80;;;;;;5083330;28;20048;-64
2021/11/26 10:06:49;;;;;;;41.60;20.88;;;3.20;11.40;;;;;;5087482;28;20456;-64
2021/11/26 10:09:23;;;;;;;;;;;3.20;10.60;;;;;;5087360;28;20145;-65
2021/11/26 10:12:03;;;;;;;40.55;19.73;;;3.10;10.40;;;;;;5083472;28;19924;-64
2021/11/26 10:14:34;;;;;;;44.05;21.15;;;3.10;10.70;;;;;;5081806;28;20116;-64
2021/11/26 10:17:17;;;;;;;40.60;19.88;;;3.10;10.90;;;;;;5084398;28;20056;-64
2021/11/26 10:20:00;;;;;;;39.83;20.55;;;3.10;10.90;;;;;;5082304;28;20056;-64
2021/11/26 10:22:36;;;;;;;43.08;21.48;;;3.00;11.90;;;;;;5083202;28;20040;-64
2021/11/26 10:25:09;;;;;;;42.00;19.88;;;3.10;12.00;;;;;;5083826;28;20134;-64
2021/11/26 10:27:43;;;;;;;39.88;20.45;;;2.90;11.30;;;;;;5081323;27;20135;-64
2021/11/26 10:30:20;;;;;;;44.05;22.13;;;3.00;12.20;;;;;;5085969;28;20044;-64
2021/11/26 10:32:55;;;;;;;39.30;20.42;;;3.30;11.50;;;;;;5079904;28;20060;-64
2021/11/26 10:35:32;;;;;;;41.50;21.33;;;3.30;11.40;;;;;;5080041;28;20141;-63
2021/11/26 10:38:05;;;;;;;40.17;19.88;;;3.30;10.40;;;;;;5087141;28;20097;-64
2021/11/26 10:40:36;;;;;;;39.50;19.45;;;3.40;10.80;;;;;;5085188;28;20747;-63
2021/11/26 10:43:15;;;;;;;32.38;17.92;;;3.30;11.00;;;;;;5080549;28;20064;-65
2021/11/26 10:48:58;;;;;;;39.70;19.08;;;3.30;10.40;;;;;;5082929;28;20078;-63
2021/11/26 10:57:37;;;;;;;39.90;18.23;;;3.20;11.50;;;;;;5083179;28;20055;-64
2021/11/26 11:00:16;;;;;;;39.08;18.67;;;3.10;11.30;;;;;;5082889;28;20062;-64
2021/11/26 11:02:46;;;;;;;42.03;20.58;;;3.30;11.30;;;;;;5078970;28;20060;-64
2021/11/26 11:05:29;;;;;;;42.45;20.00;;;3.20;11.40;;;;;;5075565;28;20044;-64
2021/11/26 11:08:04;;;;;;;36.50;20.38;;;3.20;11.40;;;;;;5085012;28;20048;-64
2021/11/26 11:10:37;;;;;;;54.65;24.15;;;3.30;12.20;;;;;;5079946;28;20040;-64
2021/11/26 11:13:10;;;;;;;46.72;22.30;;;3.30;13.30;;;;;;5081123;28;20043;-64
2021/11/26 11:15:40;;;;;;;45.58;22.50;;;3.20;14.00;;;;;;5083430;28;20036;-64
2021/11/26 11:18:14;;;;;;;42.42;20.63;;;3.20;16.30;;;;;;5082878;28;20400;-64
2021/11/26 11:20:45;;;;;;;48.97;23.15;;;3.10;16.00;;;;;;5083914;28;20038;-64
2021/11/26 11:23:19;;;;;;;46.45;23.33;;;3.20;17.90;;;;;;5080317;28;20054;-64
2021/11/26 11:25:47;;;;;;;49.78;24.45;;;3.20;18.20;;;;;;5081344;28;20055;-64
2021/11/26 11:28:18;;;;;;;45.55;22.10;;;3.30;19.10;;;;;;5085314;28;20312;-65
2021/11/26 11:30:46;;;;;;;43.28;21.15;;;3.30;17.20;;;;;;5081883;28;20407;-64
2021/11/26 11:33:16;;;;;;;47.25;21.05;;;3.30;17.70;;;;;;5077747;28;20076;-64
2021/11/26 11:35:49;;;;;;;44.58;21.13;;;3.20;16.60;;;;;;5086253;28;20035;-64
2021/11/26 11:38:19;;;;;;;42.92;21.48;;;3.30;17.00;;;;;;5083462;28;20044;-64
2021/11/26 11:40:48;;;;;;;47.08;20.75;;;3.50;16.80;;;;;;5085486;28;20040;-65
2021/11/26 11:43:22;;;;;;;38.00;19.90;;;3.50;16.20;;;;;;5081470;28;20155;-63
2021/11/26 11:45:58;;;;;;;39.10;20.25;;;3.50;15.50;;;;;;5082835;28;20131;-63
2021/11/26 11:48:30;;;;;;;42.33;20.05;;;3.50;15.20;;;;;;5085073;28;20522;-64
2021/11/26 11:51:00;;;;;;;71.95;31.75;;;3.40;15.10;;;;;;5081111;28;20048;-63
2021/11/26 11:53:33;;;;;;;46.83;20.45;;;3.90;15.40;;;;;;5081716;28;20045;-64
2021/11/26 11:56:11;;;;;;;38.65;19.35;;;3.60;14.50;;;;;;5084337;28;20096;-64
2021/11/26 11:58:48;;;;;;;42.75;20.40;;;3.50;15.20;;;;;;5082139;28;20040;-63
2021/11/26 12:01:22;;;;;;;44.33;21.95;;;3.60;15.80;;;;;;5081095;28;20136;-64
2021/11/26 12:03:53;;;;;;;44.45;21.80;;;3.60;15.80;;;;;;5079092;28;20051;-64
2021/11/26 12:06:37;;;;;;;41.80;21.52;;;3.60;15.90;;;;;;5082216;28;20044;-65
2021/11/26 12:09:06;;;;;;;41.10;20.90;;;3.60;15.90;;;;;;5082416;28;20051;-64
2021/11/26 12:11:39;;;;;;;45.42;21.23;;;3.70;15.90;;;;;;5079724;28;20060;-63
2021/11/26 12:14:11;;;;;;;43.80;20.73;;;3.60;16.30;;;;;;5079656;28;20052;-64
2021/11/26 12:16:49;;;;;;;44.90;20.65;;;3.60;16.70;;;;;;5079741;28;20126;-64
2021/11/26 12:19:23;;;;;;;44.20;19.42;;;3.70;16.80;;;;;;5084443;28;20135;-64
2021/11/26 12:21:54;;;;;;;39.65;19.02;;;3.80;17.30;;;;;;5080957;28;20105;-62
2021/11/26 12:24:33;;;;;;;41.35;20.33;;;3.60;16.80;;;;;;5079091;28;20093;-64
2021/11/26 12:27:06;;;;;;;43.47;19.38;;;3.70;16.90;;;;;;5081639;28;20495;-63
2021/11/26 12:29:44;;;;;;;37.10;18.77;;;3.80;15.30;;;;;;5084825;28;20051;-64
2021/11/26 12:32:18;;;;;;;39.47;19.15;;;3.80;16.10;;;;;;5080458;28;20151;-64
2021/11/26 12:34:48;;;;;;;38.17;19.73;;;3.80;15.70;;;;;;5080654;28;20040;-64
2021/11/26 12:37:22;;;;;;;37.70;19.02;;;3.90;15.40;;;;;;5079703;28;20136;-64
2021/11/26 12:39:52;;;;;;;40.65;18.67;;;3.90;15.40;;;;;;5081508;28;20159;-64
2021/11/26 12:42:23;;;;;;;37.42;18.20;;;3.90;15.40;;;;;;5082013;28;20094;-65
2021/11/26 12:44:59;;;;;;;46.88;20.65;;;3.90;14.10;;;;;;5082108;28;20511;-65
2021/11/26 12:47:38;;;;;;;42.13;20.10;;;4.00;14.70;;;;;;5081309;28;20130;-64
2021/11/26 12:53:07;;;;;;;44.72;20.52;;;4.00;14.20;;;;;;5080516;28;20044;-64
2021/11/26 12:55:37;;;;;;;41.15;20.08;;;4.10;14.80;;;;;;5081552;28;20085;-63
2021/11/26 12:58:11;;;;;;;42.38;21.60;;;4.20;14.20;;;;;;5079757;28;20047;-64
2021/11/26 13:00:53;;;;;;;44.72;21.73;;;4.10;14.40;;;;;;5078495;28;20067;-64
2021/11/26 13:03:21;;;;;;;45.13;22.80;;;4.20;14.00;;;;;;5078154;28;20062;-64
2021/11/26 13:05:54;;;;;;;48.88;22.70;;;4.30;14.60;;;;;;5085444;28;20048;-64
2021/11/26 13:08:24;;;;;;;53.85;24.42;;;4.40;14.10;;;;;;5078847;28;20143;-65
2021/11/26 13:10:54;;;;;;;48.92;25.35;;;4.30;13.60;;;;;;5075610;28;20054;-65